sensor_id;sensor_type;location;lat;lon;timestamp;pressure;altitude;pressure_sealevel;temperature;humidity
10348;BME280;5220;43.192;23.284;2023-02-22T00:00:11;96960.16;;;10.48;67.24
10348;BME280;5220;43.192;23.284;2023-02-22T00:02:48;96964.53;;;10.47;68.93
10348;BME280;5220;43.192;23.284;2023-02-22T00:05:17;96967.50;;;10.43;68.71
10348;BME280;5220;43.192;23.284;2023-02-22T00:07:46;96969.09;;;10.33;69.92
10348;BME280;5220;43.192;23.284;2023-02-22T00:10:13;96966.31;;;10.23;71.32
10348;BME280;5220;43.192;23.284;2023-02-22T00:12:45;96964.44;;;10.12;72.37
10348;BME280;5220;43.192;23.284;2023-02-22T00:15:13;96965.91;;;10.04;73.32
10348;BME280;5220;43.192;23.284;2023-02-22T00:17:40;96956.66;;;10.00;74.80
10348;BME280;5220;43.192;23.284;2023-02-22T00:20:08;96964.28;;;9.90;74.22
10348;BME280;5220;43.192;23.284;2023-02-22T00:22:39;96957.75;;;9.85;73.54
10348;BME280;5220;43.192;23.284;2023-02-22T00:25:07;96961.59;;;9.79;73.61
10348;BME280;5220;43.192;23.284;2023-02-22T00:27:34;96965.47;;;9.73;72.99
10348;BME280;5220;43.192;23.284;2023-02-22T00:30:01;96960.16;;;9.75;74.70
10348;BME280;5220;43.192;23.284;2023-02-22T00:32:27;96955.81;;;9.63;74.54
10348;BME280;5220;43.192;23.284;2023-02-22T00:34:54;96959.97;;;9.65;76.51
10348;BME280;5220;43.192;23.284;2023-02-22T00:37:21;96961.53;;;9.68;75.33
10348;BME280;5220;43.192;23.284;2023-02-22T00:39:49;96958.31;;;9.64;73.63
10348;BME280;5220;43.192;23.284;2023-02-22T00:42:17;96947.41;;;9.59;71.33
10348;BME280;5220;43.192;23.284;2023-02-22T00:44:44;96950.53;;;9.52;72.63
10348;BME280;5220;43.192;23.284;2023-02-22T00:47:11;96948.16;;;9.49;76.98
10348;BME280;5220;43.192;23.284;2023-02-22T00:49:37;96950.53;;;9.52;76.35
10348;BME280;5220;43.192;23.284;2023-02-22T00:52:04;96951.59;;;9.49;78.34
10348;BME280;5220;43.192;23.284;2023-02-22T00:54:32;96952.00;;;9.43;79.42
10348;BME280;5220;43.192;23.284;2023-02-22T00:57:00;96947.00;;;9.40;79.77
10348;BME280;5220;43.192;23.284;2023-02-22T00:59:27;96944.94;;;9.45;78.64
10348;BME280;5220;43.192;23.284;2023-02-22T01:01:55;96940.38;;;9.49;79.48
10348;BME280;5220;43.192;23.284;2023-02-22T01:04:22;96940.47;;;9.47;75.67
10348;BME280;5220;43.192;23.284;2023-02-22T01:06:49;96941.19;;;9.49;76.37
10348;BME280;5220;43.192;23.284;2023-02-22T01:09:16;96936.00;;;9.49;77.24
10348;BME280;5220;43.192;23.284;2023-02-22T01:11:43;96940.16;;;9.52;76.63
10348;BME280;5220;43.192;23.284;2023-02-22T01:14:11;96935.47;;;9.44;76.01
10348;BME280;5220;43.192;23.284;2023-02-22T01:16:37;96933.50;;;9.35;77.56
10348;BME280;5220;43.192;23.284;2023-02-22T01:19:04;96942.63;;;9.41;76.83
10348;BME280;5220;43.192;23.284;2023-02-22T01:21:31;96937.56;;;9.39;76.86
10348;BME280;5220;43.192;23.284;2023-02-22T01:23:58;96934.84;;;9.28;77.42
10348;BME280;5220;43.192;23.284;2023-02-22T01:26:25;96936.09;;;9.10;79.91
10348;BME280;5220;43.192;23.284;2023-02-22T01:28:51;96934.06;;;9.15;80.93
10348;BME280;5220;43.192;23.284;2023-02-22T01:31:19;96940.88;;;9.16;82.84
10348;BME280;5220;43.192;23.284;2023-02-22T01:33:48;96935.81;;;9.02;85.87
10348;BME280;5220;43.192;23.284;2023-02-22T01:36:15;96934.47;;;9.09;83.20
10348;BME280;5220;43.192;23.284;2023-02-22T01:38:43;96940.16;;;9.01;82.44
10348;BME280;5220;43.192;23.284;2023-02-22T01:41:11;96940.78;;;9.05;83.87
10348;BME280;5220;43.192;23.284;2023-02-22T01:43:37;96938.19;;;9.05;85.20
10348;BME280;5220;43.192;23.284;2023-02-22T01:46:05;96935.88;;;9.00;84.20
10348;BME280;5220;43.192;23.284;2023-02-22T01:48:39;96937.78;;;8.98;84.72
10348;BME280;5220;43.192;23.284;2023-02-22T01:51:10;96938.81;;;8.96;85.72
10348;BME280;5220;43.192;23.284;2023-02-22T01:53:41;96947.41;;;8.84;83.87
10348;BME280;5220;43.192;23.284;2023-02-22T01:56:11;96937.53;;;8.76;81.57
10348;BME280;5220;43.192;23.284;2023-02-22T01:58:40;96936.28;;;8.82;82.53
10348;BME280;5220;43.192;23.284;2023-02-22T02:01:08;96929.88;;;8.87;82.81
10348;BME280;5220;43.192;23.284;2023-02-22T02:03:38;96926.97;;;8.92;84.85
10348;BME280;5220;43.192;23.284;2023-02-22T02:06:08;96929.25;;;8.96;84.28
10348;BME280;5220;43.192;23.284;2023-02-22T02:08:44;96932.78;;;8.95;86.88
10348;BME280;5220;43.192;23.284;2023-02-22T02:11:19;96930.81;;;8.99;87.49
10348;BME280;5220;43.192;23.284;2023-02-22T02:13:47;96925.09;;;8.94;88.61
10348;BME280;5220;43.192;23.284;2023-02-22T02:16:15;96917.72;;;8.88;87.52
10348;BME280;5220;43.192;23.284;2023-02-22T02:18:43;96921.81;;;8.52;89.07
10348;BME280;5220;43.192;23.284;2023-02-22T02:21:47;96933.75;;;8.55;88.36
10348;BME280;5220;43.192;23.284;2023-02-22T02:27:25;96918.13;;;8.82;88.98
10348;BME280;5220;43.192;23.284;2023-02-22T02:30:10;96919.50;;;8.87;88.17
10348;BME280;5220;43.192;23.284;2023-02-22T02:32:50;96914.13;;;8.90;87.06
10348;BME280;5220;43.192;23.284;2023-02-22T02:35:23;96913.34;;;8.76;87.13
10348;BME280;5220;43.192;23.284;2023-02-22T02:38:00;96916.91;;;8.75;87.97
10348;BME280;5220;43.192;23.284;2023-02-22T02:40:32;96914.84;;;8.92;88.17
10348;BME280;5220;43.192;23.284;2023-02-22T02:43:08;96914.13;;;8.90;88.36
10348;BME280;5220;43.192;23.284;2023-02-22T02:45:45;96917.31;;;8.94;88.05
10348;BME280;5220;43.192;23.284;2023-02-22T02:48:18;96916.59;;;8.92;88.92
10348;BME280;5220;43.192;23.284;2023-02-22T02:50:48;96917.09;;;8.84;89.46
10348;BME280;5220;43.192;23.284;2023-02-22T02:53:23;96907.53;;;8.85;89.04
10348;BME280;5220;43.192;23.284;2023-02-22T02:55:51;96911.91;;;8.84;89.34
10348;BME280;5220;43.192;23.284;2023-02-22T02:58:19;96917.50;;;8.78;89.74
10348;BME280;5220;43.192;23.284;2023-02-22T03:00:49;96913.47;;;8.74;90.37
10348;BME280;5220;43.192;23.284;2023-02-22T03:03:37;96922.69;;;8.78;91.03
10348;BME280;5220;43.192;23.284;2023-02-22T03:06:19;96911.72;;;8.75;90.77
10348;BME280;5220;43.192;23.284;2023-02-22T03:08:56;96917.91;;;8.72;90.16
10348;BME280;5220;43.192;23.284;2023-02-22T03:11:27;96918.09;;;8.56;93.51
10348;BME280;5220;43.192;23.284;2023-02-22T03:14:00;96914.25;;;8.49;94.92
10348;BME280;5220;43.192;23.284;2023-02-22T03:16:31;96913.84;;;8.55;92.49
10348;BME280;5220;43.192;23.284;2023-02-22T03:19:08;96910.72;;;8.63;91.19
10348;BME280;5220;43.192;23.284;2023-02-22T03:21:43;96912.50;;;8.62;91.41
10348;BME280;5220;43.192;23.284;2023-02-22T03:24:17;96914.59;;;8.70;92.90
10348;BME280;5220;43.192;23.284;2023-02-22T03:26:48;96920.38;;;8.61;93.95
10348;BME280;5220;43.192;23.284;2023-02-22T03:29:20;96918.84;;;8.58;94.57
10348;BME280;5220;43.192;23.284;2023-02-22T03:31:52;96925.47;;;8.62;94.23
10348;BME280;5220;43.192;23.284;2023-02-22T03:34:30;96927.09;;;8.51;93.72
10348;BME280;5220;43.192;23.284;2023-02-22T03:37:02;96926.69;;;8.57;93.26
10348;BME280;5220;43.192;23.284;2023-02-22T03:39:32;96934.41;;;8.32;97.88
10348;BME280;5220;43.192;23.284;2023-02-22T03:42:05;96920.44;;;8.34;96.13
10348;BME280;5220;43.192;23.284;2023-02-22T03:44:34;96925.81;;;8.44;97.86
10348;BME280;5220;43.192;23.284;2023-02-22T03:47:08;96928.03;;;8.50;97.60
10348;BME280;5220;43.192;23.284;2023-02-22T03:49:43;96925.81;;;8.44;96.80
10348;BME280;5220;43.192;23.284;2023-02-22T03:52:12;96929.56;;;8.40;96.84
10348;BME280;5220;43.192;23.284;2023-02-22T03:54:39;96925.03;;;8.43;96.99
10348;BME280;5220;43.192;23.284;2023-02-22T03:57:09;96925.75;;;8.45;97.21
10348;BME280;5220;43.192;23.284;2023-02-22T03:59:37;96929.81;;;8.49;97.05
10348;BME280;5220;43.192;23.284;2023-02-22T04:02:05;96931.25;;;8.53;96.57
10348;BME280;5220;43.192;23.284;2023-02-22T04:04:32;96942.25;;;8.57;97.66
10348;BME280;5220;43.192;23.284;2023-02-22T04:07:00;96942.44;;;8.54;98.06
10348;BME280;5220;43.192;23.284;2023-02-22T04:09:27;96938.31;;;8.51;98.72
10348;BME280;5220;43.192;23.284;2023-02-22T04:11:54;96942.84;;;8.48;98.93
10348;BME280;5220;43.192;23.284;2023-02-22T04:14:20;96938.38;;;8.37;99.39
10348;BME280;5220;43.192;23.284;2023-02-22T04:16:47;96942.66;;;8.24;99.62
10348;BME280;5220;43.192;23.284;2023-02-22T04:19:14;96945.00;;;8.15;100.00
10348;BME280;5220;43.192;23.284;2023-02-22T04:21:40;96940.06;;;8.24;100.00
10348;BME280;5220;43.192;23.284;2023-02-22T04:24:08;96949.38;;;8.27;100.00
10348;BME280;5220;43.192;23.284;2023-02-22T04:26:36;96944.19;;;8.27;100.00
10348;BME280;5220;43.192;23.284;2023-02-22T04:29:03;96945.13;;;8.26;100.00
10348;BME280;5220;43.192;23.284;2023-02-22T04:31:30;96948.94;;;8.20;100.00
10348;BME280;5220;43.192;23.284;2023-02-22T04:33:58;96939.16;;;8.11;100.00
10348;BME280;5220;43.192;23.284;2023-02-22T04:36:25;96940.78;;;8.26;100.00
10348;BME280;5220;43.192;23.284;2023-02-22T04:38:52;96946.88;;;8.25;100.00
10348;BME280;5220;43.192;23.284;2023-02-22T04:41:20;96946.56;;;8.31;100.00
10348;BME280;5220;43.192;23.284;2023-02-22T04:43:47;96948.03;;;8.21;100.00
10348;BME280;5220;43.192;23.284;2023-02-22T04:46:14;96953.41;;;8.18;100.00
10348;BME280;5220;43.192;23.284;2023-02-22T04:48:41;96943.56;;;8.23;100.00
10348;BME280;5220;43.192;23.284;2023-02-22T04:51:08;96952.91;;;8.26;100.00
10348;BME280;5220;43.192;23.284;2023-02-22T04:53:35;96951.00;;;8.15;100.00
10348;BME280;5220;43.192;23.284;2023-02-22T04:56:02;96950.81;;;8.18;100.00
10348;BME280;5220;43.192;23.284;2023-02-22T04:58:30;96950.16;;;8.15;99.98
10348;BME280;5220;43.192;23.284;2023-02-22T05:00:59;96954.97;;;8.06;100.00
10348;BME280;5220;43.192;23.284;2023-02-22T05:03:26;96941.47;;;8.16;99.96
10348;BME280;5220;43.192;23.284;2023-02-22T05:05:53;96960.88;;;8.23;100.00
10348;BME280;5220;43.192;23.284;2023-02-22T05:08:20;96952.25;;;8.22;99.39
10348;BME280;5220;43.192;23.284;2023-02-22T05:10:47;96954.22;;;8.33;99.32
10348;BME280;5220;43.192;23.284;2023-02-22T05:13:13;96954.41;;;8.30;98.58
10348;BME280;5220;43.192;23.284;2023-02-22T05:15:42;96957.44;;;8.36;96.73
10348;BME280;5220;43.192;23.284;2023-02-22T05:18:08;96958.41;;;8.48;96.21
10348;BME280;5220;43.192;23.284;2023-02-22T05:20:35;96961.56;;;8.53;94.73
10348;BME280;5220;43.192;23.284;2023-02-22T05:23:02;96964.88;;;8.55;94.12
10348;BME280;5220;43.192;23.284;2023-02-22T05:25:31;96968.81;;;8.60;94.51
10348;BME280;5220;43.192;23.284;2023-02-22T05:27:59;96970.28;;;8.64;94.67
10348;BME280;5220;43.192;23.284;2023-02-22T05:30:29;96976.00;;;8.70;95.92
10348;BME280;5220;43.192;23.284;2023-02-22T05:32:58;96977.34;;;8.75;95.49
10348;BME280;5220;43.192;23.284;2023-02-22T05:35:25;96982.53;;;8.75;96.76
10348;BME280;5220;43.192;23.284;2023-02-22T05:37:53;96981.09;;;8.71;96.99
10348;BME280;5220;43.192;23.284;2023-02-22T05:40:22;96981.38;;;8.67;97.18
10348;BME280;5220;43.192;23.284;2023-02-22T05:42:50;96982.84;;;8.44;98.55
10348;BME280;5220;43.192;23.284;2023-02-22T05:45:20;96997.22;;;8.49;98.25
10348;BME280;5220;43.192;23.284;2023-02-22T05:47:47;97004.22;;;8.47;98.55
10348;BME280;5220;43.192;23.284;2023-02-22T05:50:16;97000.13;;;8.31;100.00
10348;BME280;5220;43.192;23.284;2023-02-22T05:52:42;97003.69;;;8.42;99.45
10348;BME280;5220;43.192;23.284;2023-02-22T05:55:10;97004.63;;;8.41;100.00
10348;BME280;5220;43.192;23.284;2023-02-22T05:57:38;97014.94;;;8.29;100.00
10348;BME280;5220;43.192;23.284;2023-02-22T06:00:06;97011.97;;;8.21;100.00
10348;BME280;5220;43.192;23.284;2023-02-22T06:02:33;97020.94;;;8.29;100.00
10348;BME280;5220;43.192;23.284;2023-02-22T06:05:00;97018.34;;;8.29;100.00
10348;BME280;5220;43.192;23.284;2023-02-22T06:07:28;97027.22;;;8.39;100.00
10348;BME280;5220;43.192;23.284;2023-02-22T06:09:55;97035.53;;;8.44;100.00
10348;BME280;5220;43.192;23.284;2023-02-22T06:12:21;97035.53;;;8.44;100.00
10348;BME280;5220;43.192;23.284;2023-02-22T06:14:48;97037.66;;;8.52;100.00
10348;BME280;5220;43.192;23.284;2023-02-22T06:17:15;97032.47;;;8.52;100.00
10348;BME280;5220;43.192;23.284;2023-02-22T06:19:42;97032.16;;;8.56;100.00
10348;BME280;5220;43.192;23.284;2023-02-22T06:22:15;97035.84;;;8.67;100.00
10348;BME280;5220;43.192;23.284;2023-02-22T06:24:43;97042.31;;;8.74;100.00
10348;BME280;5220;43.192;23.284;2023-02-22T06:27:10;97045.53;;;8.77;100.00
10348;BME280;5220;43.192;23.284;2023-02-22T06:29:37;97038.19;;;8.84;100.00
10348;BME280;5220;43.192;23.284;2023-02-22T06:32:04;97040.91;;;8.95;100.00
10348;BME280;5220;43.192;23.284;2023-02-22T06:34:31;97049.97;;;9.02;100.00
10348;BME280;5220;43.192;23.284;2023-02-22T06:36:57;97049.69;;;9.19;100.00
10348;BME280;5220;43.192;23.284;2023-02-22T06:39:25;97048.06;;;9.31;100.00
10348;BME280;5220;43.192;23.284;2023-02-22T06:41:53;97041.00;;;9.45;100.00
10348;BME280;5220;43.192;23.284;2023-02-22T06:44:22;97037.56;;;9.57;100.00
10348;BME280;5220;43.192;23.284;2023-02-22T06:46:49;97044.13;;;9.76;100.00
10348;BME280;5220;43.192;23.284;2023-02-22T06:49:16;97050.97;;;9.89;100.00
10348;BME280;5220;43.192;23.284;2023-02-22T06:51:43;97050.13;;;10.01;100.00
10348;BME280;5220;43.192;23.284;2023-02-22T06:54:11;97048.44;;;10.13;99.76
10348;BME280;5220;43.192;23.284;2023-02-22T06:56:37;97051.75;;;10.27;100.00
10348;BME280;5220;43.192;23.284;2023-02-22T06:59:06;97046.53;;;10.40;100.00
10348;BME280;5220;43.192;23.284;2023-02-22T07:01:33;97048.06;;;10.55;100.00
10348;BME280;5220;43.192;23.284;2023-02-22T07:03:59;97047.19;;;10.67;100.00
10348;BME280;5220;43.192;23.284;2023-02-22T07:06:26;97049.84;;;10.78;100.00
10348;BME280;5220;43.192;23.284;2023-02-22T07:08:53;97042.81;;;10.92;100.00
10348;BME280;5220;43.192;23.284;2023-02-22T07:11:20;97048.03;;;11.03;100.00
10348;BME280;5220;43.192;23.284;2023-02-22T07:13:46;97049.50;;;11.18;100.00
10348;BME280;5220;43.192;23.284;2023-02-22T07:16:15;97039.25;;;11.27;100.00
10348;BME280;5220;43.192;23.284;2023-02-22T07:18:41;97039.41;;;11.37;100.00
10348;BME280;5220;43.192;23.284;2023-02-22T07:21:08;97040.84;;;11.52;100.00
10348;BME280;5220;43.192;23.284;2023-02-22T07:23:35;97042.56;;;11.64;100.00
10348;BME280;5220;43.192;23.284;2023-02-22T07:26:03;97036.44;;;11.76;98.22
10348;BME280;5220;43.192;23.284;2023-02-22T07:28:30;97034.53;;;11.90;99.26
10348;BME280;5220;43.192;23.284;2023-02-22T07:30:56;97031.81;;;12.02;99.23
10348;BME280;5220;43.192;23.284;2023-02-22T07:33:24;97029.56;;;12.20;98.85
10348;BME280;5220;43.192;23.284;2023-02-22T07:35:51;97031.91;;;12.34;100.00
10348;BME280;5220;43.192;23.284;2023-02-22T07:38:18;97031.41;;;12.40;100.00
10348;BME280;5220;43.192;23.284;2023-02-22T07:40:45;97030.88;;;12.68;99.23
10348;BME280;5220;43.192;23.284;2023-02-22T07:43:14;97036.66;;;12.83;87.90
10348;BME280;5220;43.192;23.284;2023-02-22T07:45:42;97028.66;;;12.95;87.47
10348;BME280;5220;43.192;23.284;2023-02-22T07:48:09;97026.84;;;13.07;84.94
10348;BME280;5220;43.192;23.284;2023-02-22T07:50:39;97033.78;;;13.29;74.34
10348;BME280;5220;43.192;23.284;2023-02-22T07:53:09;97027.59;;;13.71;80.38
10348;BME280;5220;43.192;23.284;2023-02-22T07:55:37;97029.50;;;13.69;68.85
10348;BME280;5220;43.192;23.284;2023-02-22T07:58:06;97023.03;;;13.73;66.42
10348;BME280;5220;43.192;23.284;2023-02-22T08:00:35;97032.13;;;13.99;68.18
10348;BME280;5220;43.192;23.284;2023-02-22T08:03:05;97034.47;;;14.02;65.30
10348;BME280;5220;43.192;23.284;2023-02-22T08:05:33;97025.84;;;14.12;64.28
10348;BME280;5220;43.192;23.284;2023-02-22T08:08:03;97022.69;;;14.18;64.14
10348;BME280;5220;43.192;23.284;2023-02-22T08:10:31;97016.88;;;14.35;84.18
10348;BME280;5220;43.192;23.284;2023-02-22T08:12:59;97011.66;;;14.54;75.07
10348;BME280;5220;43.192;23.284;2023-02-22T08:15:28;97015.13;;;14.64;62.61
10348;BME280;5220;43.192;23.284;2023-02-22T08:17:55;97019.44;;;14.65;61.63
10348;BME280;5220;43.192;23.284;2023-02-22T08:20:22;97012.41;;;14.75;59.90
10348;BME280;5220;43.192;23.284;2023-02-22T08:22:50;97012.84;;;14.90;60.53
10348;BME280;5220;43.192;23.284;2023-02-22T08:25:21;97007.31;;;14.93;59.61
10348;BME280;5220;43.192;23.284;2023-02-22T08:27:50;97018.19;;;14.98;59.62
10348;BME280;5220;43.192;23.284;2023-02-22T08:30:19;97016.41;;;15.08;58.68
10348;BME280;5220;43.192;23.284;2023-02-22T08:32:46;97009.78;;;15.14;57.71
10348;BME280;5220;43.192;23.284;2023-02-22T08:35:14;97012.28;;;15.25;59.11
10348;BME280;5220;43.192;23.284;2023-02-22T08:37:41;97004.97;;;15.38;59.15
10348;BME280;5220;43.192;23.284;2023-02-22T08:40:10;97006.75;;;15.37;54.53
10348;BME280;5220;43.192;23.284;2023-02-22T08:42:38;97001.06;;;15.42;57.16
10348;BME280;5220;43.192;23.284;2023-02-22T08:45:05;96994.72;;;15.54;55.79
10348;BME280;5220;43.192;23.284;2023-02-22T08:47:33;96995.56;;;15.64;60.68
10348;BME280;5220;43.192;23.284;2023-02-22T08:49:59;96993.44;;;15.77;57.58
10348;BME280;5220;43.192;23.284;2023-02-22T08:52:26;96990.63;;;15.88;54.57
10348;BME280;5220;43.192;23.284;2023-02-22T08:54:53;96987.44;;;15.94;53.92
10348;BME280;5220;43.192;23.284;2023-02-22T08:57:20;96978.69;;;16.03;54.45
10348;BME280;5220;43.192;23.284;2023-02-22T08:59:48;96980.03;;;16.17;51.36
10348;BME280;5220;43.192;23.284;2023-02-22T09:02:17;96980.91;;;16.08;50.53
10348;BME280;5220;43.192;23.284;2023-02-22T09:04:44;96978.53;;;16.14;51.27
10348;BME280;5220;43.192;23.284;2023-02-22T09:07:12;96981.81;;;16.17;50.92
10348;BME280;5220;43.192;23.284;2023-02-22T09:09:39;96977.59;;;16.06;50.91
10348;BME280;5220;43.192;23.284;2023-02-22T09:12:07;96967.97;;;16.24;52.37
10348;BME280;5220;43.192;23.284;2023-02-22T09:14:34;96974.38;;;16.39;48.96
10348;BME280;5220;43.192;23.284;2023-02-22T09:17:03;96974.69;;;16.36;49.48
10348;BME280;5220;43.192;23.284;2023-02-22T09:19:29;96964.19;;;16.54;53.15
10348;BME280;5220;43.192;23.284;2023-02-22T09:21:57;96973.84;;;16.63;49.80
10348;BME280;5220;43.192;23.284;2023-02-22T09:24:25;96980.69;;;16.56;48.39
10348;BME280;5220;43.192;23.284;2023-02-22T09:26:52;96969.88;;;16.59;48.75
10348;BME280;5220;43.192;23.284;2023-02-22T09:29:20;96970.97;;;16.56;49.40
10348;BME280;5220;43.192;23.284;2023-02-22T09:31:49;96964.16;;;16.63;48.71
10348;BME280;5220;43.192;23.284;2023-02-22T09:34:18;96961.16;;;16.76;49.23
10348;BME280;5220;43.192;23.284;2023-02-22T09:36:48;96966.41;;;16.76;49.43
10348;BME280;5220;43.192;23.284;2023-02-22T09:39:16;96961.31;;;16.92;48.21
10348;BME280;5220;43.192;23.284;2023-02-22T09:41:50;96963.88;;;17.02;48.18
10348;BME280;5220;43.192;23.284;2023-02-22T09:44:25;96955.06;;;17.11;47.99
10348;BME280;5220;43.192;23.284;2023-02-22T09:46:54;96958.22;;;17.14;51.06
10348;BME280;5220;43.192;23.284;2023-02-22T09:49:27;96950.59;;;17.29;50.52
10348;BME280;5220;43.192;23.284;2023-02-22T09:51:59;96947.06;;;17.38;49.38
10348;BME280;5220;43.192;23.284;2023-02-22T09:54:32;96938.66;;;17.35;48.03
10348;BME280;5220;43.192;23.284;2023-02-22T09:57:04;96943.81;;;17.44;46.62
10348;BME280;5220;43.192;23.284;2023-02-22T09:59:36;96940.72;;;17.49;48.53
10348;BME280;5220;43.192;23.284;2023-02-22T10:02:17;96941.19;;;17.44;47.33
10348;BME280;5220;43.192;23.284;2023-02-22T10:04:51;96933.19;;;17.54;47.71
10348;BME280;5220;43.192;23.284;2023-02-22T10:07:25;96939.03;;;17.65;46.30
10348;BME280;5220;43.192;23.284;2023-02-22T10:09:54;96933.34;;;17.52;47.53
10348;BME280;5220;43.192;23.284;2023-02-22T10:12:28;96936.09;;;17.43;45.90
10348;BME280;5220;43.192;23.284;2023-02-22T10:15:34;96931.13;;;17.65;47.28
10348;BME280;5220;43.192;23.284;2023-02-22T10:21:08;96916.00;;;17.93;46.14
10348;BME280;5220;43.192;23.284;2023-02-22T10:23:48;96914.97;;;17.86;45.15
10348;BME280;5220;43.192;23.284;2023-02-22T10:26:24;96903.19;;;18.06;45.93
10348;BME280;5220;43.192;23.284;2023-02-22T10:28:53;96903.91;;;18.16;46.84
10348;BME280;5220;43.192;23.284;2023-02-22T10:31:25;96907.81;;;18.04;44.24
10348;BME280;5220;43.192;23.284;2023-02-22T10:33:56;96903.38;;;18.05;43.87
10348;BME280;5220;43.192;23.284;2023-02-22T10:36:26;96894.13;;;18.01;44.44
10348;BME280;5220;43.192;23.284;2023-02-22T10:38:56;96891.50;;;17.93;44.02
10348;BME280;5220;43.192;23.284;2023-02-22T10:41:27;96897.06;;;17.90;43.52
10348;BME280;5220;43.192;23.284;2023-02-22T10:43:54;96892.22;;;18.11;42.47
10348;BME280;5220;43.192;23.284;2023-02-22T10:46:23;96873.22;;;17.91;43.44
10348;BME280;5220;43.192;23.284;2023-02-22T10:48:53;96874.44;;;18.13;43.54
10348;BME280;5220;43.192;23.284;2023-02-22T10:51:25;96867.66;;;18.02;43.19
10348;BME280;5220;43.192;23.284;2023-02-22T10:53:57;96873.38;;;17.90;42.34
10348;BME280;5220;43.192;23.284;2023-02-22T10:56:25;96858.88;;;17.86;44.20
10348;BME280;5220;43.192;23.284;2023-02-22T10:58:54;96860.75;;;18.09;43.15
10348;BME280;5220;43.192;23.284;2023-02-22T11:01:26;96855.22;;;18.28;42.27
10348;BME280;5220;43.192;23.284;2023-02-22T11:04:10;96848.13;;;18.21;42.06
10348;BME280;5220;43.192;23.284;2023-02-22T11:06:40;96849.28;;;18.26;41.10
10348;BME280;5220;43.192;23.284;2023-02-22T11:09:11;96850.94;;;18.27;40.61
10348;BME280;5220;43.192;23.284;2023-02-22T11:11:40;96833.81;;;18.23;41.07
10348;BME280;5220;43.192;23.284;2023-02-22T11:14:08;96834.31;;;18.35;40.81
10348;BME280;5220;43.192;23.284;2023-02-22T11:16:38;96839.47;;;18.53;41.71
10348;BME280;5220;43.192;23.284;2023-02-22T11:19:16;96840.47;;;18.52;42.11
10348;BME280;5220;43.192;23.284;2023-02-22T11:21:47;96835.69;;;18.63;42.89
10348;BME280;5220;43.192;23.284;2023-02-22T11:24:16;96828.94;;;18.69;42.35
10348;BME280;5220;43.192;23.284;2023-02-22T11:26:46;96830.91;;;18.67;42.56
10348;BME280;5220;43.192;23.284;2023-02-22T11:29:19;96818.41;;;18.61;42.69
10348;BME280;5220;43.192;23.284;2023-02-22T11:31:47;96821.03;;;18.77;42.19
10348;BME280;5220;43.192;23.284;2023-02-22T11:34:26;96814.06;;;19.00;42.61
10348;BME280;5220;43.192;23.284;2023-02-22T11:36:54;96808.13;;;19.06;44.77
10348;BME280;5220;43.192;23.284;2023-02-22T11:39:23;96806.00;;;19.10;41.98
10348;BME280;5220;43.192;23.284;2023-02-22T11:41:51;96807.47;;;19.20;42.38
10348;BME280;5220;43.192;23.284;2023-02-22T11:44:23;96796.69;;;19.38;41.61
10348;BME280;5220;43.192;23.284;2023-02-22T11:46:52;96798.88;;;19.26;42.19
10348;BME280;5220;43.192;23.284;2023-02-22T11:49:22;96798.84;;;19.34;41.51
10348;BME280;5220;43.192;23.284;2023-02-22T11:52:02;96801.13;;;19.38;41.65
10348;BME280;5220;43.192;23.284;2023-02-22T11:54:59;96795.38;;;19.42;42.21
10348;BME280;5220;43.192;23.284;2023-02-22T11:57:38;96795.41;;;19.18;42.31
10348;BME280;5220;43.192;23.284;2023-02-22T12:00:18;96795.75;;;19.23;42.99
10348;BME280;5220;43.192;23.284;2023-02-22T12:06:09;96794.94;;;19.14;42.59
10348;BME280;5220;43.192;23.284;2023-02-22T12:08:49;96775.38;;;18.93;43.03
10348;BME280;5220;43.192;23.284;2023-02-22T12:11:25;96779.31;;;19.05;43.29
10348;BME280;5220;43.192;23.284;2023-02-22T12:14:00;96776.84;;;18.87;44.21
10348;BME280;5220;43.192;23.284;2023-02-22T12:16:40;96776.53;;;18.90;44.22
10348;BME280;5220;43.192;23.284;2023-02-22T12:19:17;96775.34;;;19.01;42.70
10348;BME280;5220;43.192;23.284;2023-02-22T12:21:51;96777.69;;;18.96;42.64
10348;BME280;5220;43.192;23.284;2023-02-22T12:24:22;96765.50;;;18.95;43.97
10348;BME280;5220;43.192;23.284;2023-02-22T12:26:55;96763.97;;;19.08;44.57
10348;BME280;5220;43.192;23.284;2023-02-22T12:29:28;96770.19;;;19.15;43.98
10348;BME280;5220;43.192;23.284;2023-02-22T12:32:02;96757.53;;;19.03;43.00
10348;BME280;5220;43.192;23.284;2023-02-22T12:34:35;96762.63;;;19.12;43.90
10348;BME280;5220;43.192;23.284;2023-02-22T12:37:10;96760.66;;;19.14;43.60
10348;BME280;5220;43.192;23.284;2023-02-22T12:39:48;96753.03;;;18.64;44.30
10348;BME280;5220;43.192;23.284;2023-02-22T12:42:21;96754.81;;;18.80;44.54
10348;BME280;5220;43.192;23.284;2023-02-22T12:44:53;96750.88;;;18.60;44.94
10348;BME280;5220;43.192;23.284;2023-02-22T12:47:27;96758.44;;;18.63;45.02
10348;BME280;5220;43.192;23.284;2023-02-22T12:50:03;96751.84;;;18.75;44.39
10348;BME280;5220;43.192;23.284;2023-02-22T12:52:39;96749.22;;;18.83;44.25
10348;BME280;5220;43.192;23.284;2023-02-22T12:55:14;96757.72;;;18.93;43.85
10348;BME280;5220;43.192;23.284;2023-02-22T12:57:46;96749.84;;;18.85;43.90
10348;BME280;5220;43.192;23.284;2023-02-22T13:00:17;96746.06;;;18.96;43.56
10348;BME280;5220;43.192;23.284;2023-02-22T13:02:55;96755.75;;;19.03;42.46
10348;BME280;5220;43.192;23.284;2023-02-22T13:05:23;96756.19;;;19.15;43.06
10348;BME280;5220;43.192;23.284;2023-02-22T13:08:04;96749.44;;;19.20;43.94
10348;BME280;5220;43.192;23.284;2023-02-22T13:10:49;96757.53;;;19.11;43.50
10348;BME280;5220;43.192;23.284;2023-02-22T13:13:24;96750.84;;;18.92;43.84
10348;BME280;5220;43.192;23.284;2023-02-22T13:16:01;96756.41;;;18.97;44.24
10348;BME280;5220;43.192;23.284;2023-02-22T13:18:37;96751.25;;;19.12;44.17
10348;BME280;5220;43.192;23.284;2023-02-22T13:21:13;96746.47;;;19.15;44.38
10348;BME280;5220;43.192;23.284;2023-02-22T13:23:46;96747.63;;;19.13;43.69
10348;BME280;5220;43.192;23.284;2023-02-22T13:26:21;96757.00;;;19.15;44.71